Time;durP1;ratioP1;P1;durP2;ratioP2;P2;SDS_P1;SDS_P2;PMS_P1;PMS_P2;Temp;Humidity;BMP_temperature;BMP_pressure;BME280_temperature;BME280_humidity;BME280_pressure;Samples;Min_cycle;Max_cycle;Signal;HPM_P1;HPM_P2
2022/10/22 00:01:12;;;;;;;14.23;6.93;;;;;;;;;;5109299;27;20040;-83
2022/10/22 00:03:39;;;;;;;16.08;7.35;;;;;;;;;;5108631;27;20522;-83
2022/10/22 00:06:05;;;;;;;16.73;6.85;;;;;;;;;;5109791;28;20529;-83
2022/10/22 00:08:31;;;;;;;15.93;7.28;;;;;;;;;;5108173;28;20059;-83
2022/10/22 00:10:58;;;;;;;16.27;7.63;;;;;;;;;;5110369;27;20056;-83
2022/10/22 00:13:24;;;;;;;17.10;7.43;;;;;;;;;;5103422;28;20145;-83
2022/10/22 00:15:50;;;;;;;13.35;7.05;;;;;;;;;;5091630;28;20044;-83
2022/10/22 00:18:17;;;;;;;16.55;7.45;;;;;;;;;;5109042;28;20056;-83
2022/10/22 00:20:43;;;;;;;15.77;7.05;;;;;;;;;;5107898;27;20810;-82
2022/10/22 00:23:09;;;;;;;16.85;7.18;;;;;;;;;;5093367;28;20576;-83
2022/10/22 00:25:36;;;;;;;14.43;7.68;;;;;;;;;;5089626;28;20056;-83
2022/10/22 00:28:03;;;;;;;19.77;7.57;;;;;;;;;;5091010;28;20055;-83
2022/10/22 00:30:29;;;;;;;18.33;7.35;;;;;;;;;;5089211;28;20056;-83
2022/10/22 00:32:56;;;;;;;18.73;8.70;;;;;;;;;;5103305;28;20118;-83
2022/10/22 00:35:22;;;;;;;15.98;7.22;;;;;;;;;;5102743;27;20525;-83
2022/10/22 00:37:48;;;;;;;17.52;7.15;;;;;;;;;;5088358;28;20091;-83
2022/10/22 00:40:14;;;;;;;20.33;7.97;;;;;;;;;;5108961;27;20059;-83
2022/10/22 00:42:41;;;;;;;16.45;8.00;;;;;;;;;;5110824;27;20498;-83
2022/10/22 00:45:08;;;;;;;19.38;7.97;;;;;;;;;;5108743;28;20086;-83
2022/10/22 00:47:54;;;;;;;15.48;7.82;;;;;;;;;;5109982;27;20044;-83
2022/10/22 00:50:41;;;;;;;19.13;7.18;;;;;;;;;;5091321;27;20059;-83
2022/10/22 00:53:10;;;;;;;19.35;7.32;;;;;;;;;;5088178;28;20056;-83
2022/10/22 00:55:37;;;;;;;16.38;7.10;;;;;;;;;;5088575;28;20052;-83
2022/10/22 00:58:04;;;;;;;22.48;8.38;;;;;;;;;;5088659;28;20568;-83
2022/10/22 01:00:30;;;;;;;17.95;7.03;;;;;;;;;;5104921;27;20052;-83
2022/10/22 01:02:56;;;;;;;16.85;6.82;;;;;;;;;;5107844;28;20058;-83
2022/10/22 01:05:26;;;;;;;16.58;7.20;;;;;;;;;;5109524;27;20497;-83
2022/10/22 01:07:55;;;;;;;15.23;6.95;;;;;;;;;;5089091;28;20159;-83
2022/10/22 01:10:42;;;;;;;17.17;7.00;;;;;;;;;;5087320;28;20527;-83
2022/10/22 01:13:17;;;;;;;18.05;6.70;;;;;;;;;;5095501;28;20047;-83
2022/10/22 01:15:51;;;;;;;16.75;6.13;;;;;;;;;;5107872;28;20096;-84
2022/10/22 01:18:21;;;;;;;15.75;6.25;;;;;;;;;;5106590;27;20059;-83
2022/10/22 01:21:07;;;;;;;19.35;7.03;;;;;;;;;;5107577;27;20056;-83
2022/10/22 01:23:51;;;;;;;12.48;6.03;;;;;;;;;;5104643;27;20052;-83
2022/10/22 01:26:24;;;;;;;17.67;6.35;;;;;;;;;;5108725;28;20056;-83
2022/10/22 01:28:50;;;;;;;11.73;6.13;;;;;;;;;;5104853;28;20056;-83
2022/10/22 01:31:16;;;;;;;16.38;7.10;;;;;;;;;;5087985;28;20064;-83
2022/10/22 01:33:44;;;;;;;13.00;7.05;;;;;;;;;;5092954;28;20051;-83
2022/10/22 01:36:11;;;;;;;17.10;6.18;;;;;;;;;;5104201;27;20135;-83
2022/10/22 01:38:38;;;;;;;17.15;6.45;;;;;;;;;;5107118;28;20064;-83
2022/10/22 01:41:05;;;;;;;14.55;6.28;;;;;;;;;;5087426;28;20060;-82
2022/10/22 01:43:32;;;;;;;13.38;6.30;;;;;;;;;;5106039;27;20055;-83
2022/10/22 01:46:00;;;;;;;14.63;6.35;;;;;;;;;;5102489;27;20059;-83
2022/10/22 01:48:38;;;;;;;17.48;6.25;;;;;;;;;;5101810;27;20048;-83
2022/10/22 01:51:23;;;;;;;16.23;6.47;;;;;;;;;;5092851;28;20059;-83
2022/10/22 01:54:01;;;;;;;13.63;6.57;;;;;;;;;;5100114;28;20056;-83
2022/10/22 01:56:30;;;;;;;22.80;6.45;;;;;;;;;;5100130;28;20075;-83
2022/10/22 01:59:00;;;;;;;19.45;6.75;;;;;;;;;;5109636;27;20056;-83
2022/10/22 02:01:45;;;;;;;11.93;6.50;;;;;;;;;;5091602;28;20516;-84
2022/10/22 02:04:19;;;;;;;13.77;6.18;;;;;;;;;;5121935;27;20553;-83
2022/10/22 02:06:46;;;;;;;17.85;6.60;;;;;;;;;;5108290;27;20126;-83
2022/10/22 02:09:13;;;;;;;16.45;6.60;;;;;;;;;;5093763;28;20083;-83
2022/10/22 02:11:41;;;;;;;18.00;6.65;;;;;;;;;;5090598;28;20115;-83
2022/10/22 02:14:07;;;;;;;18.17;6.43;;;;;;;;;;5090544;28;20183;-83
2022/10/22 02:16:36;;;;;;;13.77;6.43;;;;;;;;;;5090729;28;20098;-84
2022/10/22 02:19:21;;;;;;;13.68;6.30;;;;;;;;;;5091608;28;20059;-83
2022/10/22 02:21:48;;;;;;;15.45;6.47;;;;;;;;;;5093609;28;20059;-84
2022/10/22 02:24:15;;;;;;;16.40;6.45;;;;;;;;;;5104750;28;20048;-83
2022/10/22 02:26:47;;;;;;;14.93;6.72;;;;;;;;;;5090506;28;20056;-83
2022/10/22 02:29:33;;;;;;;18.70;6.35;;;;;;;;;;5091595;28;20079;-83
2022/10/22 02:32:01;;;;;;;12.75;6.03;;;;;;;;;;5100836;27;20106;-83
2022/10/22 02:34:29;;;;;;;17.33;6.25;;;;;;;;;;5110912;27;20048;-83
2022/10/22 02:36:55;;;;;;;15.40;6.38;;;;;;;;;;5110708;28;20056;-83
2022/10/22 02:39:22;;;;;;;17.40;6.55;;;;;;;;;;5111882;27;20094;-84
2022/10/22 02:41:48;;;;;;;17.08;6.63;;;;;;;;;;5108891;27;20083;-83
2022/10/22 02:44:14;;;;;;;18.88;6.40;;;;;;;;;;5096676;27;20052;-83
2022/10/22 02:46:42;;;;;;;13.63;5.70;;;;;;;;;;5112215;27;20055;-83
2022/10/22 02:49:08;;;;;;;17.38;6.30;;;;;;;;;;5102532;27;20519;-83
2022/10/22 02:51:34;;;;;;;14.73;6.13;;;;;;;;;;5089773;28;20071;-83
2022/10/22 02:54:00;;;;;;;14.70;5.78;;;;;;;;;;5106018;27;20055;-82
2022/10/22 02:56:27;;;;;;;14.38;5.65;;;;;;;;;;5095100;27;20060;-84
2022/10/22 02:58:53;;;;;;;15.93;6.10;;;;;;;;;;5099417;28;20055;-84
2022/10/22 03:01:19;;;;;;;18.83;6.40;;;;;;;;;;5108452;27;20075;-83
2022/10/22 03:03:46;;;;;;;13.35;5.80;;;;;;;;;;5108060;28;20052;-83
2022/10/22 03:06:12;;;;;;;13.93;6.15;;;;;;;;;;5110284;28;20583;-83
2022/10/22 03:08:39;;;;;;;16.50;5.70;;;;;;;;;;5116327;27;20084;-83
2022/10/22 03:11:05;;;;;;;17.05;6.40;;;;;;;;;;5088833;28;20052;-83
2022/10/22 03:13:31;;;;;;;16.80;5.93;;;;;;;;;;5102432;27;20059;-83
2022/10/22 03:15:58;;;;;;;17.75;6.03;;;;;;;;;;5096528;27;20532;-84
2022/10/22 03:18:24;;;;;;;15.55;6.47;;;;;;;;;;5093492;28;20059;-83
2022/10/22 03:20:58;;;;;;;13.73;6.13;;;;;;;;;;5089498;28;20049;-83
2022/10/22 03:23:24;;;;;;;11.93;5.72;;;;;;;;;;5101486;28;20059;-83
2022/10/22 03:25:50;;;;;;;16.23;6.05;;;;;;;;;;5100623;28;20059;-84
2022/10/22 03:28:17;;;;;;;17.88;6.00;;;;;;;;;;5111306;27;20150;-83
2022/10/22 03:30:43;;;;;;;12.70;5.93;;;;;;;;;;5113635;27;20056;-83
2022/10/22 03:33:10;;;;;;;15.43;6.03;;;;;;;;;;5095833;27;20056;-83
2022/10/22 03:35:39;;;;;;;22.50;7.28;;;;;;;;;;5089294;28;20052;-83
2022/10/22 03:38:05;;;;;;;17.25;6.35;;;;;;;;;;5089858;28;20041;-83
2022/10/22 03:40:32;;;;;;;14.35;6.38;;;;;;;;;;5090024;28;20060;-83
2022/10/22 03:43:01;;;;;;;16.05;6.28;;;;;;;;;;5102564;27;20107;-84
2022/10/22 03:45:27;;;;;;;14.35;6.32;;;;;;;;;;5105921;27;20059;-83
2022/10/22 03:47:54;;;;;;;20.00;6.90;;;;;;;;;;5109736;28;20052;-84
2022/10/22 03:50:20;;;;;;;16.40;6.13;;;;;;;;;;5101361;28;20114;-83
2022/10/22 03:52:46;;;;;;;16.90;6.13;;;;;;;;;;5109427;27;20526;-83
2022/10/22 03:55:12;;;;;;;18.40;6.65;;;;;;;;;;5095916;27;20581;-83
2022/10/22 03:57:39;;;;;;;15.55;6.25;;;;;;;;;;5090443;28;20511;-83
2022/10/22 04:00:06;;;;;;;19.48;6.10;;;;;;;;;;5102203;27;20059;-83
2022/10/22 04:02:32;;;;;;;15.85;6.50;;;;;;;;;;5097385;28;20060;-84
2022/10/22 04:04:58;;;;;;;14.50;6.40;;;;;;;;;;5106426;27;20060;-83
2022/10/22 04:07:25;;;;;;;17.05;7.20;;;;;;;;;;5091369;27;20522;-83
2022/10/22 04:09:51;;;;;;;19.60;6.90;;;;;;;;;;5095363;28;20048;-83
2022/10/22 04:12:17;;;;;;;18.55;6.35;;;;;;;;;;5099661;28;20632;-83
2022/10/22 04:14:43;;;;;;;18.58;6.85;;;;;;;;;;5088382;28;20055;-83
2022/10/22 04:17:10;;;;;;;14.40;6.70;;;;;;;;;;5120496;27;20059;-83
2022/10/22 04:19:36;;;;;;;13.38;6.35;;;;;;;;;;5130098;27;20047;-84
2022/10/22 04:22:02;;;;;;;19.25;6.47;;;;;;;;;;5115201;27;20056;-83
2022/10/22 04:24:29;;;;;;;23.05;7.32;;;;;;;;;;5108093;27;20517;-83
2022/10/22 04:26:56;;;;;;;17.42;6.60;;;;;;;;;;5109350;28;20052;-84
2022/10/22 04:29:23;;;;;;;21.15;6.97;;;;;;;;;;5095653;27;20048;-83
2022/10/22 04:31:49;;;;;;;15.27;6.65;;;;;;;;;;5108158;28;20052;-83
2022/10/22 04:34:15;;;;;;;19.63;6.90;;;;;;;;;;5107099;28;20056;-83
2022/10/22 04:36:42;;;;;;;18.58;6.60;;;;;;;;;;5110021;27;20766;-83
2022/10/22 04:39:08;;;;;;;19.80;7.43;;;;;;;;;;5108454;27;20572;-83
2022/10/22 04:41:36;;;;;;;15.88;6.38;;;;;;;;;;5126574;27;20059;-83
2022/10/22 04:44:03;;;;;;;18.73;7.03;;;;;;;;;;5101565;27;20049;-83
2022/10/22 04:46:31;;;;;;;15.48;6.78;;;;;;;;;;5089741;28;20479;-83
2022/10/22 04:48:57;;;;;;;30.83;7.05;;;;;;;;;;5088113;28;20057;-83
2022/10/22 04:51:24;;;;;;;19.35;6.25;;;;;;;;;;5087574;28;20118;-84
2022/10/22 04:53:50;;;;;;;17.60;7.03;;;;;;;;;;5104490;28;20055;-83
2022/10/22 04:56:19;;;;;;;17.17;6.60;;;;;;;;;;5108963;28;20051;-83
2022/10/22 04:58:47;;;;;;;15.00;6.70;;;;;;;;;;5109088;27;20066;-83
2022/10/22 05:01:15;;;;;;;22.52;7.40;;;;;;;;;;5108866;27;20047;-83
2022/10/22 05:03:44;;;;;;;25.48;6.93;;;;;;;;;;5108556;27;20434;-83
2022/10/22 05:06:11;;;;;;;16.23;6.53;;;;;;;;;;5107480;28;20056;-84
2022/10/22 05:08:43;;;;;;;14.15;6.30;;;;;;;;;;5106448;28;20057;-83
2022/10/22 05:11:13;;;;;;;21.02;6.95;;;;;;;;;;5103010;27;20724;-83
2022/10/22 05:13:39;;;;;;;16.05;7.03;;;;;;;;;;5090751;28;20052;-83
2022/10/22 05:16:06;;;;;;;20.42;6.65;;;;;;;;;;5109032;27;20052;-84
2022/10/22 05:18:35;;;;;;;14.02;6.60;;;;;;;;;;5117704;27;20060;-85
2022/10/22 05:21:02;;;;;;;16.63;6.97;;;;;;;;;;5115553;28;20048;-84
2022/10/22 05:23:28;;;;;;;18.65;6.55;;;;;;;;;;5110285;27;20056;-84
2022/10/22 05:25:54;;;;;;;22.30;7.57;;;;;;;;;;5098523;28;20048;-84
2022/10/22 05:28:21;;;;;;;22.88;7.15;;;;;;;;;;5113699;28;20063;-84
2022/10/22 05:30:54;;;;;;;17.48;6.57;;;;;;;;;;5097841;27;20496;-84
2022/10/22 05:33:21;;;;;;;19.10;7.03;;;;;;;;;;5095756;28;20053;-84
2022/10/22 05:35:49;;;;;;;18.00;6.55;;;;;;;;;;5103015;27;20055;-83
2022/10/22 05:38:16;;;;;;;20.83;6.50;;;;;;;;;;5138344;27;20468;-84
2022/10/22 05:40:42;;;;;;;16.55;6.50;;;;;;;;;;5137408;27;20058;-83
2022/10/22 05:43:08;;;;;;;17.90;5.80;;;;;;;;;;5124326;27;20109;-83
2022/10/22 05:45:35;;;;;;;13.57;5.57;;;;;;;;;;5119477;27;20048;-83
2022/10/22 05:48:02;;;;;;;18.45;6.38;;;;;;;;;;5112152;27;20049;-84
2022/10/22 05:50:28;;;;;;;20.17;6.45;;;;;;;;;;5098835;28;20059;-83
2022/10/22 05:52:54;;;;;;;17.52;6.68;;;;;;;;;;5108176;28;20132;-83
2022/10/22 05:55:21;;;;;;;19.95;6.47;;;;;;;;;;5100707;27;20059;-83
2022/10/22 05:57:48;;;;;;;19.40;5.95;;;;;;;;;;5094318;28;20466;-84
2022/10/22 06:00:15;;;;;;;20.00;6.68;;;;;;;;;;5101222;27;20067;-83
2022/10/22 06:02:42;;;;;;;17.30;5.82;;;;;;;;;;5114306;28;20070;-83
2022/10/22 06:05:08;;;;;;;13.85;5.63;;;;;;;;;;5107616;28;20056;-83
2022/10/22 06:07:34;;;;;;;18.02;6.15;;;;;;;;;;5113415;28;20048;-83
2022/10/22 06:10:01;;;;;;;18.80;5.85;;;;;;;;;;5113848;28;20075;-84
2022/10/22 06:12:27;;;;;;;17.90;6.38;;;;;;;;;;5115259;27;20082;-83
2022/10/22 06:14:53;;;;;;;18.25;6.72;;;;;;;;;;5109434;27;20052;-84
2022/10/22 06:17:19;;;;;;;18.70;6.53;;;;;;;;;;5109230;28;20055;-84
2022/10/22 06:19:46;;;;;;;17.83;6.93;;;;;;;;;;5116399;27;20048;-83
2022/10/22 06:22:12;;;;;;;22.65;6.55;;;;;;;;;;5112077;27;20048;-83
2022/10/22 06:24:38;;;;;;;20.42;5.68;;;;;;;;;;5112490;28;20060;-83
2022/10/22 06:27:09;;;;;;;20.90;6.63;;;;;;;;;;5113539;27;20052;-83
2022/10/22 06:29:35;;;;;;;17.90;5.90;;;;;;;;;;5110460;28;20533;-83
2022/10/22 06:32:02;;;;;;;17.90;5.70;;;;;;;;;;5107255;28;20048;-83
2022/10/22 06:34:28;;;;;;;18.30;6.10;;;;;;;;;;5096502;28;20048;-84
2022/10/22 06:36:54;;;;;;;18.85;6.07;;;;;;;;;;5090587;28;20053;-83
2022/10/22 06:39:20;;;;;;;19.25;5.90;;;;;;;;;;5093136;27;20503;-84
2022/10/22 06:41:47;;;;;;;20.88;5.70;;;;;;;;;;5111396;27;20105;-83
2022/10/22 06:44:14;;;;;;;19.55;5.88;;;;;;;;;;5095348;28;20059;-83
2022/10/22 06:46:41;;;;;;;13.00;5.63;;;;;;;;;;5107467;28;20048;-84
2022/10/22 06:49:11;;;;;;;14.55;5.40;;;;;;;;;;5090047;28;20079;-82
2022/10/22 06:51:37;;;;;;;18.55;6.05;;;;;;;;;;5093328;27;20060;-84
2022/10/22 06:54:03;;;;;;;14.40;5.72;;;;;;;;;;5109961;28;20052;-84
2022/10/22 06:56:30;;;;;;;17.95;5.35;;;;;;;;;;5110158;28;20056;-83
2022/10/22 06:58:56;;;;;;;19.27;5.68;;;;;;;;;;5111372;28;20516;-83
2022/10/22 07:01:29;;;;;;;22.17;6.65;;;;;;;;;;5111874;27;20055;-83
2022/10/22 07:03:55;;;;;;;19.10;6.43;;;;;;;;;;5104266;27;20131;-83
2022/10/22 07:06:22;;;;;;;19.25;6.15;;;;;;;;;;5090488;28;20083;-83
2022/10/22 07:08:49;;;;;;;19.98;6.07;;;;;;;;;;5089599;28;20515;-82
2022/10/22 07:11:20;;;;;;;11.05;4.70;;;;;;;;;;5090993;28;20126;-83
2022/10/22 07:13:46;;;;;;;16.55;6.10;;;;;;;;;;5094132;28;20052;-83
2022/10/22 07:16:12;;;;;;;14.88;5.57;;;;;;;;;;5104867;28;20059;-83
2022/10/22 07:18:39;;;;;;;15.50;4.70;;;;;;;;;;5109531;27;20048;-83
2022/10/22 07:21:06;;;;;;;11.95;4.60;;;;;;;;;;5089727;28;20478;-83
2022/10/22 07:23:33;;;;;;;15.77;4.85;;;;;;;;;;5096094;27;20060;-83
2022/10/22 07:26:02;;;;;;;13.27;4.65;;;;;;;;;;5103001;28;20056;-83
2022/10/22 07:28:28;;;;;;;16.05;4.70;;;;;;;;;;5089840;28;20083;-80
2022/10/22 07:30:55;;;;;;;15.77;4.78;;;;;;;;;;5109414;27;20469;-80
2022/10/22 07:33:21;;;;;;;18.77;4.53;;;;;;;;;;5101428;27;20048;-81
2022/10/22 07:35:47;;;;;;;11.43;4.28;;;;;;;;;;5106518;27;20044;-80
2022/10/22 07:38:14;;;;;;;13.80;4.00;;;;;;;;;;5111085;27;20535;-81
2022/10/22 07:40:40;;;;;;;19.10;4.95;;;;;;;;;;5108149;27;20985;-80
2022/10/22 07:43:06;;;;;;;14.88;4.50;;;;;;;;;;5100001;28;20052;-81
2022/10/22 07:45:32;;;;;;;16.48;4.30;;;;;;;;;;5098513;27;20047;-82
2022/10/22 07:47:59;;;;;;;12.48;3.88;;;;;;;;;;5102629;27;20059;-81
2022/10/22 07:50:25;;;;;;;15.68;4.72;;;;;;;;;;5103520;28;20059;-80
2022/10/22 07:52:52;;;;;;;10.18;3.80;;;;;;;;;;5100680;27;20534;-81
2022/10/22 07:55:22;;;;;;;15.23;4.38;;;;;;;;;;5099324;27;20063;-81
2022/10/22 07:57:48;;;;;;;16.73;4.32;;;;;;;;;;5095173;27;20102;-81
2022/10/22 08:00:15;;;;;;;19.13;3.90;;;;;;;;;;5102307;28;20066;-81
2022/10/22 08:02:43;;;;;;;13.20;4.57;;;;;;;;;;5094645;27;20076;-82
2022/10/22 08:05:10;;;;;;;13.50;3.55;;;;;;;;;;5098795;27;20063;-81
2022/10/22 08:07:36;;;;;;;19.95;3.83;;;;;;;;;;5099154;27;20523;-82
2022/10/22 08:10:03;;;;;;;8.57;3.20;;;;;;;;;;5101172;27;20056;-81
2022/10/22 08:12:29;;;;;;;13.15;3.33;;;;;;;;;;5099068;28;20048;-82
2022/10/22 08:14:56;;;;;;;13.80;3.05;;;;;;;;;;5093293;27;20493;-81
2022/10/22 08:17:22;;;;;;;13.32;2.78;;;;;;;;;;5107070;28;20052;-81
2022/10/22 08:19:48;;;;;;;15.43;3.25;;;;;;;;;;5104212;27;20596;-81
2022/10/22 08:22:14;;;;;;;7.60;2.30;;;;;;;;;;5092918;28;20063;-82
2022/10/22 08:24:41;;;;;;;13.45;3.15;;;;;;;;;;5097715;27;20052;-81
2022/10/22 08:27:07;;;;;;;10.35;2.55;;;;;;;;;;5099788;28;20036;-81
2022/10/22 08:29:34;;;;;;;8.25;2.53;;;;;;;;;;5103669;28;20100;-81
2022/10/22 08:32:02;;;;;;;9.88;2.60;;;;;;;;;;5110732;27;20063;-81
2022/10/22 08:34:29;;;;;;;13.73;2.50;;;;;;;;;;5096942;28;20534;-80
2022/10/22 08:36:55;;;;;;;12.13;2.88;;;;;;;;;;5120005;27;20125;-82
2022/10/22 08:39:21;;;;;;;10.73;3.00;;;;;;;;;;5104570;28;20048;-81
2022/10/22 08:42:07;;;;;;;11.10;2.70;;;;;;;;;;5105797;27;20055;-81
2022/10/22 08:44:52;;;;;;;11.63;2.70;;;;;;;;;;5097086;28;20075;-82
2022/10/22 08:47:21;;;;;;;11.80;2.70;;;;;;;;;;5108045;27;20118;-81
2022/10/22 08:49:48;;;;;;;12.48;2.40;;;;;;;;;;5102846;27;20103;-81
2022/10/22 08:52:18;;;;;;;17.13;2.70;;;;;;;;;;5102778;28;20044;-81
2022/10/22 08:54:51;;;;;;;14.52;2.33;;;;;;;;;;5107424;28;20051;-82
2022/10/22 08:57:24;;;;;;;14.27;2.30;;;;;;;;;;5111985;28;20110;-83
2022/10/22 08:59:54;;;;;;;9.02;2.35;;;;;;;;;;5095034;28;20103;-83
2022/10/22 09:02:27;;;;;;;16.73;2.50;;;;;;;;;;5106098;28;20056;-81
2022/10/22 09:05:00;;;;;;;11.55;2.10;;;;;;;;;;5094008;28;20104;-80
2022/10/22 09:07:27;;;;;;;13.32;2.83;;;;;;;;;;5105038;28;20044;-80
2022/10/22 09:09:54;;;;;;;8.70;2.45;;;;;;;;;;5092334;28;20074;-80
2022/10/22 09:12:21;;;;;;;10.85;2.55;;;;;;;;;;5092900;28;20103;-79
2022/10/22 09:14:47;;;;;;;10.13;2.33;;;;;;;;;;5112569;27;20446;-80
2022/10/22 09:17:19;;;;;;;12.25;2.65;;;;;;;;;;5114054;27;20044;-80
2022/10/22 09:20:04;;;;;;;11.60;2.50;;;;;;;;;;5093332;28;20049;-80
2022/10/22 09:22:33;;;;;;;12.10;2.70;;;;;;;;;;5103733;28;20528;-80
2022/10/22 09:25:20;;;;;;;12.88;2.50;;;;;;;;;;5099202;27;20060;-80
2022/10/22 09:27:47;;;;;;;16.27;3.17;;;;;;;;;;5098306;27;20044;-80
2022/10/22 09:30:17;;;;;;;10.90;2.92;;;;;;;;;;5109575;27;20511;-80
2022/10/22 09:32:43;;;;;;;16.63;3.22;;;;;;;;;;5097904;28;20059;-80
2022/10/22 09:35:11;;;;;;;15.88;2.40;;;;;;;;;;5102030;27;20048;-80
2022/10/22 09:37:46;;;;;;;11.82;2.80;;;;;;;;;;5108289;27;20053;-80
2022/10/22 09:40:13;;;;;;;13.32;2.20;;;;;;;;;;5104306;27;20051;-80
2022/10/22 09:42:40;;;;;;;13.32;3.30;;;;;;;;;;5101983;27;20060;-80
2022/10/22 09:45:14;;;;;;;14.15;3.15;;;;;;;;;;5103439;28;20067;-80
2022/10/22 09:47:40;;;;;;;8.20;2.00;;;;;;;;;;5104346;28;20048;-80
2022/10/22 09:50:28;;;;;;;10.73;2.08;;;;;;;;;;5098904;28;20470;-80
2022/10/22 09:52:59;;;;;;;12.65;2.70;;;;;;;;;;5094367;28;20052;-80
2022/10/22 09:55:25;;;;;;;11.35;2.17;;;;;;;;;;5106640;28;20049;-80
2022/10/22 09:57:53;;;;;;;12.75;2.40;;;;;;;;;;5107481;28;20052;-81
2022/10/22 10:00:20;;;;;;;11.05;2.33;;;;;;;;;;5106971;27;20032;-81
2022/10/22 10:02:46;;;;;;;13.13;2.53;;;;;;;;;;5114791;27;20052;-84
2022/10/22 10:05:20;;;;;;;10.80;2.33;;;;;;;;;;5112754;27;20048;-81
2022/10/22 10:07:47;;;;;;;9.10;2.05;;;;;;;;;;5109381;27;20049;-81
2022/10/22 10:10:20;;;;;;;11.50;2.47;;;;;;;;;;5101150;27;20929;-81
2022/10/22 10:12:46;;;;;;;10.18;2.60;;;;;;;;;;5101838;27;20055;-81
2022/10/22 10:15:19;;;;;;;10.02;2.53;;;;;;;;;;5111065;28;20099;-81
2022/10/22 10:17:45;;;;;;;9.95;2.38;;;;;;;;;;5116918;27;20136;-81
2022/10/22 10:20:23;;;;;;;11.60;2.25;;;;;;;;;;5114995;27;20044;-81
2022/10/22 10:23:08;;;;;;;13.07;2.55;;;;;;;;;;5111690;28;20052;-81
2022/10/22 10:25:34;;;;;;;9.32;2.63;;;;;;;;;;5114533;27;20569;-81
2022/10/22 10:28:24;;;;;;;8.77;2.28;;;;;;;;;;5107939;28;20036;-81
2022/10/22 10:31:01;;;;;;;7.63;1.80;;;;;;;;;;5102031;28;20048;-80
2022/10/22 10:33:27;;;;;;;9.45;1.80;;;;;;;;;;5106022;27;20056;-81
2022/10/22 10:36:02;;;;;;;8.25;2.20;;;;;;;;;;5114414;28;20044;-81
2022/10/22 10:38:30;;;;;;;13.02;2.38;;;;;;;;;;5104071;28;20048;-81
2022/10/22 10:41:01;;;;;;;13.15;2.10;;;;;;;;;;5127308;27;20055;-80
2022/10/22 10:43:34;;;;;;;7.90;2.13;;;;;;;;;;5126181;27;20051;-81
2022/10/22 10:46:19;;;;;;;9.85;2.00;;;;;;;;;;5119913;27;20057;-81
2022/10/22 10:48:53;;;;;;;10.43;2.05;;;;;;;;;;5126050;27;20123;-80
2022/10/22 10:51:28;;;;;;;14.98;2.42;;;;;;;;;;5110015;28;20106;-81
2022/10/22 10:54:14;;;;;;;9.73;2.03;;;;;;;;;;5119636;27;20052;-81
2022/10/22 10:56:51;;;;;;;7.85;1.60;;;;;;;;;;5106041;27;20060;-81
2022/10/22 10:59:29;;;;;;;12.25;2.20;;;;;;;;;;5112207;27;20052;-81
2022/10/22 11:02:14;;;;;;;6.18;1.73;;;;;;;;;;5115909;28;20060;-81
2022/10/22 11:04:46;;;;;;;8.52;1.88;;;;;;;;;;5111873;27;20037;-82
2022/10/22 11:07:16;;;;;;;8.05;1.65;;;;;;;;;;5112131;27;20052;-81
2022/10/22 11:10:02;;;;;;;9.70;2.05;;;;;;;;;;5111400;27;20046;-81
2022/10/22 11:12:38;;;;;;;14.57;2.13;;;;;;;;;;5117428;27;20048;-81
2022/10/22 11:15:23;;;;;;;6.28;1.55;;;;;;;;;;5114933;27;20053;-82
2022/10/22 11:17:51;;;;;;;11.13;1.77;;;;;;;;;;5115074;27;20040;-81
2022/10/22 11:20:22;;;;;;;11.85;2.03;;;;;;;;;;5113127;27;20060;-82
2022/10/22 11:22:51;;;;;;;13.98;1.77;;;;;;;;;;5118037;27;20107;-81
2022/10/22 11:25:42;;;;;;;8.60;1.40;;;;;;;;;;5113070;28;20052;-82
2022/10/22 11:28:11;;;;;;;14.00;1.95;;;;;;;;;;5105305;27;20177;-81
2022/10/22 11:30:39;;;;;;;10.57;2.07;;;;;;;;;;5110556;27;20572;-81
2022/10/22 11:33:08;;;;;;;9.18;1.92;;;;;;;;;;5114310;27;20259;-81
2022/10/22 11:35:38;;;;;;;12.00;2.05;;;;;;;;;;5113423;28;20052;-81
2022/10/22 11:38:05;;;;;;;11.05;1.85;;;;;;;;;;5121138;27;20056;-81
2022/10/22 11:40:34;;;;;;;7.55;1.58;;;;;;;;;;5106993;27;20037;-81
2022/10/22 11:43:05;;;;;;;11.50;1.77;;;;;;;;;;5114050;28;20056;-81
2022/10/22 11:45:39;;;;;;;10.90;1.95;;;;;;;;;;5109614;28;20105;-81
2022/10/22 11:48:08;;;;;;;9.95;1.73;;;;;;;;;;5125145;27;20036;-81
2022/10/22 11:50:53;;;;;;;11.25;1.85;;;;;;;;;;5114232;27;20056;-81
2022/10/22 11:53:37;;;;;;;12.48;2.08;;;;;;;;;;5111472;27;20106;-81
2022/10/22 11:56:03;;;;;;;10.43;1.70;;;;;;;;;;5107884;27;20117;-82
2022/10/22 11:58:46;;;;;;;11.32;2.15;;;;;;;;;;5115116;27;20044;-81
2022/10/22 12:01:50;;;;;;;11.32;1.90;;;;;;;;;;5106970;27;20510;-81
2022/10/22 12:04:19;;;;;;;7.40;1.90;;;;;;;;;;5095362;27;20059;-81
2022/10/22 12:06:58;;;;;;;10.68;1.70;;;;;;;;;;5130452;27;20052;-81
2022/10/22 12:09:29;;;;;;;;;;;;;;;;;;5134561;27;20925;-80
2022/10/22 12:12:15;;;;;;;13.60;2.15;;;;;;;;;;5111465;27;44652;-81
2022/10/22 12:14:56;;;;;;;11.13;1.95;;;;;;;;;;5106126;27;20048;-81
2022/10/22 12:17:26;;;;;;;9.52;1.90;;;;;;;;;;5118179;27;20129;-80
2022/10/22 12:20:08;;;;;;;10.57;1.85;;;;;;;;;;5102772;27;20072;-81
2022/10/22 12:22:37;;;;;;;9.13;1.95;;;;;;;;;;5108550;27;20091;-82
2022/10/22 12:25:22;;;;;;;12.15;2.13;;;;;;;;;;5110075;27;20068;-82
2022/10/22 12:28:01;;;;;;;13.98;2.25;;;;;;;;;;5096831;28;20048;-81
2022/10/22 12:31:06;;;;;;;10.68;2.10;;;;;;;;;;5106190;27;20140;-82
2022/10/22 12:33:41;;;;;;;15.23;2.08;;;;;;;;;;5096017;28;20056;-80
2022/10/22 12:36:18;;;;;;;10.57;1.95;;;;;;;;;;5101188;28;20052;-80
2022/10/22 12:38:49;;;;;;;12.90;1.50;;;;;;;;;;5107384;27;20067;-79
2022/10/22 12:41:31;;;;;;;12.00;1.95;;;;;;;;;;5133584;27;20059;-80
2022/10/22 12:44:05;;;;;;;14.00;2.03;;;;;;;;;;5098236;27;20106;-80
2022/10/22 12:46:42;;;;;;;9.05;1.50;;;;;;;;;;5106245;28;20802;-79
2022/10/22 12:49:24;;;;;;;11.50;1.90;;;;;;;;;;5107141;27;20072;-79
2022/10/22 12:51:59;;;;;;;11.35;1.77;;;;;;;;;;5107631;27;20052;-80
2022/10/22 12:54:31;;;;;;;14.20;2.38;;;;;;;;;;5109436;28;20649;-80
2022/10/22 12:57:07;;;;;;;10.70;2.13;;;;;;;;;;5109561;27;20056;-80
2022/10/22 12:59:45;;;;;;;16.02;2.63;;;;;;;;;;5117879;27;20048;-80
2022/10/22 13:02:32;;;;;;;10.55;1.95;;;;;;;;;;5108029;28;20564;-79
2022/10/22 13:05:15;;;;;;;14.35;2.63;;;;;;;;;;5108791;27;20067;-80
2022/10/22 13:07:52;;;;;;;12.80;2.05;;;;;;;;;;5118430;27;20051;-80
2022/10/22 13:10:29;;;;;;;13.18;1.85;;;;;;;;;;5117525;27;20056;-79
2022/10/22 13:13:02;;;;;;;10.27;1.50;;;;;;;;;;5133532;27;20058;-80
2022/10/22 13:15:46;;;;;;;9.23;2.28;;;;;;;;;;5089823;28;20079;-79
2022/10/22 13:18:19;;;;;;;11.25;2.15;;;;;;;;;;5098792;28;20139;-79
2022/10/22 13:21:06;;;;;;;10.73;2.08;;;;;;;;;;5111806;27;20515;-80
2022/10/22 13:23:59;;;;;;;10.70;2.20;;;;;;;;;;5099919;27;20102;-80
2022/10/22 13:26:34;;;;;;;14.25;2.47;;;;;;;;;;5108927;27;20079;-79
2022/10/22 13:29:13;;;;;;;12.43;2.65;;;;;;;;;;5104396;27;20056;-79
2022/10/22 13:31:54;;;;;;;16.63;2.83;;;;;;;;;;5107304;27;20059;-79
2022/10/22 13:34:29;;;;;;;10.90;2.15;;;;;;;;;;5107885;28;20087;-79
2022/10/22 13:37:00;;;;;;;17.90;2.60;;;;;;;;;;5101547;27;20048;-79
2022/10/22 13:39:28;;;;;;;17.15;2.58;;;;;;;;;;5108098;27;20138;-79
2022/10/22 13:41:56;;;;;;;13.43;2.60;;;;;;;;;;5111639;27;20499;-79
2022/10/22 13:44:25;;;;;;;12.75;2.67;;;;;;;;;;5105258;28;20420;-79
2022/10/22 13:47:04;;;;;;;10.20;2.38;;;;;;;;;;5110007;27;20048;-80
2022/10/22 13:50:03;;;;;;;10.35;2.25;;;;;;;;;;5114143;28;20048;-79
2022/10/22 13:52:46;;;;;;;11.70;2.70;;;;;;;;;;5112810;27;20146;-79
2022/10/22 13:55:30;;;;;;;12.55;2.70;;;;;;;;;;5116001;27;20105;-79
2022/10/22 13:58:17;;;;;;;13.55;2.60;;;;;;;;;;5100238;27;20052;-79
2022/10/22 14:01:08;;;;;;;16.50;3.58;;;;;;;;;;5101904;28;20139;-79
2022/10/22 14:03:43;;;;;;;15.77;2.78;;;;;;;;;;5114095;27;20102;-79
2022/10/22 14:06:17;;;;;;;10.77;2.50;;;;;;;;;;5116622;27;20053;-79
2022/10/22 14:08:53;;;;;;;18.38;3.00;;;;;;;;;;5113265;27;20052;-79
2022/10/22 14:11:31;;;;;;;18.17;2.92;;;;;;;;;;5112171;27;20079;-79
2022/10/22 14:13:59;;;;;;;8.48;2.30;;;;;;;;;;5109674;27;20052;-79
2022/10/22 14:16:34;;;;;;;11.02;2.97;;;;;;;;;;5112284;28;21308;-79
2022/10/22 14:19:06;;;;;;;12.70;2.80;;;;;;;;;;5099327;28;20052;-79
2022/10/22 14:21:37;;;;;;;20.63;3.47;;;;;;;;;;5094146;28;20511;-79
2022/10/22 14:24:12;;;;;;;15.70;2.95;;;;;;;;;;5098018;28;20184;-79
2022/10/22 14:26:53;;;;;;;15.70;2.92;;;;;;;;;;5134705;27;20062;-79
2022/10/22 14:29:31;;;;;;;12.13;2.35;;;;;;;;;;5122680;27;20063;-79
2022/10/22 14:32:20;;;;;;;14.07;2.70;;;;;;;;;;5115051;27;20064;-79
2022/10/22 14:35:00;;;;;;;18.15;3.88;;;;;;;;;;5102136;27;20061;-79
2022/10/22 14:37:36;;;;;;;9.68;2.75;;;;;;;;;;5125524;27;20047;-79
2022/10/22 14:40:40;;;;;;;12.60;3.58;;;;;;;;;;5135581;27;20058;-79
2022/10/22 14:43:33;;;;;;;15.02;2.72;;;;;;;;;;5118348;27;20762;-79
2022/10/22 14:46:05;;;;;;;13.15;2.80;;;;;;;;;;5111170;28;20143;-79
2022/10/22 14:49:01;;;;;;;14.82;2.38;;;;;;;;;;5119751;27;20055;-79
2022/10/22 14:51:42;;;;;;;10.00;2.40;;;;;;;;;;5133914;27;20058;-79
2022/10/22 14:54:14;;;;;;;17.27;3.00;;;;;;;;;;5107884;27;20430;-79